Latest Coastal Weather Observations for Devonport Airport

IDT60701

Issued at 1:52 am EDT Saturday 16 November 2019 (issued every 10 minutes, with the page automatically refreshed every 10 minutes)

About coastal observations | Map of coastal stations | Coastal observations for TAS | Marine services | Other Formats
Station Details ID: 091126 Name: DEVONPORT AIRPORT Lat: -41.17 Lon: 146.43 Height: 8.0 m
Data from the previous 72 hours. | See also: Recent months at Devonport Airport
Date/Time
EDT
Wind Sea
Height
m
Swell Vis
km
Cloud Weather Temp
°C
Press
hPa
Rain since
9am
mm
Dir  Spd
kts
Gust
kts
Height
m
Period
s
Dir
16/01:30am W 7 10 - - - - 10 - - 7.3 1009.7 0.0
16/01:00am W 11 15 - - - - 10 - - 8.2 1009.6 0.0
16/12:30am W 13 16 - - - - 10 - - 8.1 1009.7 0.0
16/12:00am W 13 16 - - - - 10 - - 7.9 1009.4 0.0
 
Date/Time
EDT
Wind Sea
Height
m
Swell Vis
km
Cloud Weather Temp
°C
Press
hPa
Rain since
9am
mm
Dir  Spd
kts
Gust
kts
Height
m
Period
s
Dir
15/11:30pm W 17 23 - - - - 10 - - 8.2 1009.4 0.0
15/11:00pm W 20 23 - - - - 10 - - 8.9 1009.1 0.0
15/10:30pm W 17 22 - - - - 10 - - 9.0 1009.1 0.0
15/10:00pm W 17 23 - - - - 10 - - 9.6 1008.7 0.0
15/09:30pm W 15 20 - - - - 10 Partly cloudy - 9.6 1008.7 0.0
15/09:00pm W 18 22 - - - - 10 Mostly clear - 10.3 1008.3 0.0
15/08:30pm W 17 23 - - - - 10 - - 10.5 1007.7 0.0
15/08:00pm W 15 21 - - - - 10 - - 10.4 1007.4 0.0
15/07:30pm W 18 23 - - - - 10 - - 11.6 1007.0 0.0
15/07:03pm WSW 16 26 - - - - 10 Partly cloudy - 12.8 1006.3 0.0
15/07:00pm WSW 16 20 - - - - 10 - - 12.8 1006.3 0.0
15/06:30pm WSW 17 25 - - - - 10 Partly cloudy - 13.5 1005.8 0.0
15/06:07pm WSW 24 34 - - - - 10 - - 13.5 1005.4 0.0
15/06:00pm WSW 26 35 - - - - 10 - - 13.4 1005.3 0.0
15/05:36pm W 21 32 - - - - 10 Partly cloudy - 14.5 1004.7 0.0
15/05:30pm W 21 29 - - - - 10 Partly cloudy - 14.8 1004.6 0.0
15/05:00pm W 26 36 - - - - 10 Partly cloudy - 15.0 1004.2 0.0
15/04:30pm WSW 26 36 - - - - 10 Partly cloudy - 14.7 1003.9 0.0
15/04:00pm WSW 29 39 - - - - 10 Partly cloudy - 14.5 1003.6 0.0
15/03:37pm W 24 34 - - - - 10 Partly cloudy - 15.5 1003.5 0.0
15/03:30pm WSW 26 35 - - - - 10 Partly cloudy - 14.4 1003.4 0.0
15/03:12pm WSW 21 31 - - - - 10 Partly cloudy - 14.6 1003.3 0.0
15/03:06pm W 23 30 - - - - 10 Partly cloudy - 14.6 1003.3 0.0
15/03:00pm W 24 31 - - - - 10 Mostly cloudy - 15.0 1002.9 0.0
15/02:30pm W 24 34 - - - - 10 Partly cloudy - 15.5 1002.9 0.0
15/02:24pm WSW 24 34 - - - - 10 Partly cloudy - 15.5 1002.9 0.0
15/02:08pm W 22 30 - - - - 10 Partly cloudy - 13.6 1002.8 0.0
15/02:00pm WNW 22 28 - - - - 10 Partly cloudy - 14.0 1002.8 0.0
15/01:30pm WNW 19 27 - - - - 10 Partly cloudy - 16.3 1002.5 0.0
15/01:13pm WNW 23 34 - - - - 10 Partly cloudy - 14.7 1002.3 0.0
15/01:00pm WNW 20 29 - - - - 10 Partly cloudy - 16.2 1002.3 0.0
15/12:30pm WNW 21 26 - - - - 10 Partly cloudy - 15.4 1002.7 0.0
15/12:17pm W 23 33 - - - - 10 Partly cloudy - 14.6 1002.8 0.0
15/12:00pm W 23 30 - - - - 10 Cloudy - 15.2 1002.9 0.0
15/11:47am WNW 22 28 - - - - 10 Partly cloudy - 14.6 1003.0 0.0
15/11:30am WNW 19 25 - - - - 10 Partly cloudy - 14.6 1003.0 0.0
15/11:00am WNW 18 23 - - - - 10 Partly cloudy - 14.9 1003.1 0.0
15/10:30am W 20 27 - - - - 10 Partly cloudy - 14.9 1003.5 0.0
15/10:00am W 23 31 - - - - 10 Partly cloudy - 14.4 1003.3 0.0
15/09:46am W 19 30 - - - - 10 Partly cloudy - 13.8 1003.3 0.0
15/09:30am W 20 25 - - - - 10 - - 14.3 1003.2 0.0
15/09:00am W 23 33 - - - - 10 - - 13.9 1003.2 0.0
15/08:54am W 22 33 - - - - 10 - - 13.8 1003.1 0.0
15/08:30am W 20 26 - - - - 10 - - 13.6 1002.9 0.0
15/08:00am W 19 24 - - - - 10 Partly cloudy - 13.0 1003.0 0.0
15/07:30am WNW 18 22 - - - - 10 - - 12.5 1002.7 0.0
15/07:00am WNW 20 25 - - - - 10 - - 12.1 1002.6 0.0
15/06:30am WNW 16 21 - - - - 10 - - 11.3 1002.4 0.0
15/06:00am W 13 17 - - - - 10 Cloudy - 11.1 1002.3 0.0
15/05:30am W 16 20 - - - - 10 - - 11.3 1002.0 0.0
15/05:00am WNW 20 24 - - - - 10 Partly cloudy - 11.6 1001.6 0.0
15/04:30am WNW 22 27 - - - - 10 Partly cloudy - 11.9 1001.6 0.0
15/04:00am WNW 20 24 - - - - 10 - - 11.7 1001.7 0.0
15/03:30am WNW 20 25 - - - - 10 - - 11.7 1001.7 0.0
15/03:00am WNW 20 24 - - - - 10 Mostly cloudy - 11.8 1001.6 0.0
15/02:30am WNW 20 25 - - - - 10 Partly cloudy - 11.8 1001.9 0.0
15/02:00am WNW 20 26 - - - - 10 Partly cloudy - 11.8 1002.1 0.0
15/01:30am WNW 21 27 - - - - 10 Partly cloudy - 12.1 1002.6 0.0
15/01:00am WNW 19 27 - - - - 10 Partly cloudy - 12.2 1002.7 0.0
15/12:30am WNW 24 31 - - - - 10 Partly cloudy - 12.4 1002.9 0.0
15/12:00am WNW 22 27 - - - - 10 Cloudy - 12.3 1003.0 0.0
 
Date/Time
EDT
Wind Sea
Height
m
Swell Vis
km
Cloud Weather Temp
°C
Press
hPa
Rain since
9am
mm
Dir  Spd
kts
Gust
kts
Height
m
Period
s
Dir
14/11:30pm WNW 25 31 - - - - 10 Partly cloudy - 12.5 1003.4 0.0
14/11:00pm WNW 22 28 - - - - 10 Partly cloudy - 12.5 1003.6 0.0
14/10:30pm WNW 22 27 - - - - 10 Partly cloudy - 12.5 1004.0 0.0
14/10:00pm WNW 22 28 - - - - 10 Cloudy - 12.9 1004.2 0.0
14/09:30pm WNW 22 29 - - - - 10 Cloudy - 12.8 1004.4 0.0
14/09:00pm WNW 22 27 - - - - 10 Mostly clear - 12.8 1004.3 0.0
14/08:30pm WNW 23 28 - - - - 10 Partly cloudy - 12.9 1004.2 0.0
14/08:00pm WNW 22 27 - - - - 10 Partly cloudy - 13.0 1004.4 0.0
14/07:30pm WNW 23 29 - - - - 10 Partly cloudy - 13.4 1004.6 0.0
14/07:00pm WNW 24 30 - - - - 10 Cloudy - 13.7 1004.6 0.0
14/06:30pm WNW 25 31 - - - - 10 Cloudy - 14.2 1004.7 0.0
14/06:06pm W 25 35 - - - - 10 Partly cloudy - 15.1 1004.7 0.0
14/06:00pm W 26 35 - - - - 10 Cloudy - 15.0 1004.5 0.0
14/05:46pm WNW 26 36 - - - - 10 Partly cloudy - 15.4 1004.6 0.0
14/05:30pm WNW 24 33 - - - - 10 Partly cloudy - 15.3 1004.4 0.0
14/05:29pm WNW 23 33 - - - - 10 Partly cloudy - 15.3 1004.3 0.0
14/05:00pm WNW 25 33 - - - - 10 Partly cloudy - 15.7 1004.5 0.0
14/04:30pm W 28 36 - - - - 10 Partly cloudy - 16.4 1004.5 0.0
14/04:17pm WNW 27 37 - - - - 10 Partly cloudy - 16.7 1004.5 0.0
14/04:00pm WNW 26 31 - - - - 10 Partly cloudy - 15.9 1004.6 0.0
14/03:30pm W 25 33 - - - - 10 Partly cloudy - 16.8 1004.5 0.0
14/03:13pm W 25 37 - - - - 10 Partly cloudy - 17.0 1004.8 0.0
14/03:00pm W 26 33 - - - - 10 Partly cloudy - 17.0 1005.0 0.0
14/02:30pm WNW 23 30 - - - - 10 Partly cloudy - 17.5 1005.0 0.0
14/02:00pm W 28 33 - - - - 10 Partly cloudy - 17.5 1005.1 0.0
14/01:30pm W 23 30 - - - - 10 Partly cloudy - 17.9 1005.4 0.0
14/01:00pm W 24 33 - - - - 10 Partly cloudy - 17.8 1005.1 0.0
14/12:58pm W 23 33 - - - - 10 Cloudy - 18.4 1005.0 0.0
14/12:30pm W 22 27 - - - - 10 Partly cloudy - 17.1 1005.1 0.0
14/12:05pm W 25 35 - - - - 10 Partly cloudy - 16.8 1005.4 0.0
14/12:00pm W 25 32 - - - - 10 Cloudy - 17.2 1005.1 0.0
14/11:30am W 28 35 - - - - 10 Partly cloudy - 17.3 1005.2 0.0
14/11:15am WNW 27 37 - - - - 10 Partly cloudy - 15.8 1005.1 0.0
14/11:00am WNW 26 32 - - - - 10 Partly cloudy - 15.5 1005.0 0.0
14/10:30am NW 21 27 - - - - 10 Partly cloudy - 13.7 1005.4 0.0
14/10:00am NW 20 26 - - - - 10 Cloudy - 13.1 1005.7 0.0
14/09:30am NW 21 27 - - - - 10 Partly cloudy - 13.0 1005.9 0.0
14/09:00am NW 21 26 - - - - 10 Cloudy - 12.8 1006.2 0.0
14/08:30am NW 21 25 - - - - 10 Cloudy - 12.8 1006.3 0.0
14/08:00am NW 21 26 - - - - 10 Cloudy - 12.8 1006.4 0.0
14/07:30am NW 21 25 - - - - 10 Cloudy - 12.4 1006.2 0.0
14/07:00am NW 22 27 - - - - 10 Partly cloudy - 12.0 1006.3 0.0
14/06:30am NW 19 23 - - - - 10 Partly cloudy - 12.1 1006.3 0.0
14/06:00am NW 20 23 - - - - 10 Cloudy - 11.9 1006.2 0.0
14/05:30am NW 19 25 - - - - 10 Partly cloudy - 11.7 1006.0 0.0
14/05:00am NW 20 26 - - - - 10 Partly cloudy - 11.9 1006.4 0.0
14/04:30am NW 18 22 - - - - 10 Partly cloudy - 11.8 1006.6 0.0
14/04:00am NW 20 25 - - - - 10 Cloudy - 11.7 1006.8 0.0
14/03:30am NW 20 24 - - - - 10 Partly cloudy - 11.7 1007.0 0.0
14/03:00am WNW 20 23 - - - - 10 Cloudy - 11.7 1007.4 0.0
14/02:30am WNW 19 24 - - - - 10 Partly cloudy - 11.4 1007.4 0.0
14/02:00am WNW 17 22 - - - - 10 Partly cloudy - 11.6 1007.9 0.0
14/01:30am WNW 17 21 - - - - 10 Partly cloudy - 11.5 1008.0 0.0
14/01:00am WNW 13 17 - - - - 10 Partly cloudy - 11.6 1008.1 0.0
14/12:30am W 8 11 - - - - 10 Cloudy - 11.0 1008.6 0.0
14/12:00am W 7 9 - - - - 10 Partly cloudy - 10.1 1008.6 0.0
 
Date/Time
EDT
Wind Sea
Height
m
Swell Vis
km
Cloud Weather Temp
°C
Press
hPa
Rain since
9am
mm
Dir  Spd
kts
Gust
kts
Height
m
Period
s
Dir
13/11:30pm WSW 10 15 - - - - 10 Partly cloudy - 10.5 1008.7 0.0
13/11:00pm W 13 21 - - - - 10 - - 10.4 1008.6 0.0
13/10:30pm W 14 17 - - - - 10 - - 11.1 1008.7 0.0
13/10:00pm W 11 14 - - - - 10 - - 11.1 1008.6 0.0
13/09:30pm WSW 13 18 - - - - 10 - - 11.3 1007.8 0.0
13/09:00pm WSW 12 15 - - - - 10 - - 11.2 1007.6 0.0
13/08:30pm WSW 17 24 - - - - 10 - - 11.9 1007.0 0.0
13/08:00pm WSW 19 25 - - - - 10 - - 12.6 1006.4 0.0
13/07:42pm W 20 30 - - - - 10 - - 13.1 1006.0 0.0
13/07:30pm W 17 21 - - - - 10 Partly cloudy - 13.3 1005.7 0.0
13/07:00pm W 22 28 - - - - 10 Partly cloudy - 14.4 1005.7 0.0
13/06:31pm W 19 29 - - - - 10 Partly cloudy - 15.1 1005.0 0.0
13/06:30pm W 19 25 - - - - 10 Partly cloudy - 15.3 1005.0 0.0
13/06:22pm W 18 28 - - - - 10 Partly cloudy - 15.4 1004.9 0.0
13/06:00pm WSW 21 30 - - - - 10 Partly cloudy - 15.9 1004.7 0.0
13/05:31pm WSW 25 35 - - - - 10 Partly cloudy - 15.8 1004.4 0.0
13/05:30pm W 26 35 - - - - 10 Partly cloudy - 15.8 1004.4 0.0
13/05:03pm W 21 32 - - - - 10 Partly cloudy - 16.3 1004.2 0.0
13/05:00pm W 21 29 - - - - 10 Partly cloudy - 15.9 1004.0 0.0
13/04:32pm W 29 39 - - - - 10 Partly cloudy - 16.2 1003.4 0.0
13/04:30pm W 28 37 - - - - 10 Partly cloudy - 16.6 1003.4 0.0
13/04:00pm W 28 39 - - - - 10 Partly cloudy - 16.9 1002.8 0.0
13/03:30pm WSW 28 39 - - - - 10 Partly cloudy - 15.8 1002.8 0.0
13/03:04pm WSW 34 44 - - - - 10 Partly cloudy - 16.8 1002.5 0.0
13/03:00pm WSW 35 44 - - - - 10 Mostly clear - 16.8 1002.5 0.0
13/02:30pm WSW 27 40 - - - - 10 Partly cloudy - 17.4 1002.5 0.0
13/02:00pm WSW 29 44 - - - - 10 Partly cloudy - 18.3 1001.9 0.0
13/01:36pm W 25 37 - - - - 10 Partly cloudy - 17.9 1001.6 0.0
13/01:30pm W 26 33 - - - - 10 Partly cloudy - 17.4 1001.8 0.0
13/01:29pm W 27 33 - - - - 10 Partly cloudy - 16.9 1001.8 0.0
13/01:00pm WNW 26 35 - - - - 10 Partly cloudy - 15.1 1001.7 0.0
13/12:44pm WNW 27 37 - - - - 10 Partly cloudy - 14.6 1001.9 0.0
13/12:30pm WNW 26 32 - - - - 10 Partly cloudy - 14.5 1002.0 0.0
13/12:00pm NW 25 32 - - - - 10 Cloudy Rain 13.3 1002.6 0.0
13/11:30am NW 25 33 - - - - 10 Partly cloudy - 12.9 1003.1 0.0
13/11:00am WNW 24 30 - - - - 10 Partly cloudy - 12.3 1003.8 0.0
13/10:30am WNW 25 31 - - - - 10 Cloudy - 11.9 1004.5 0.0
13/10:00am WNW 24 30 - - - - 10 Cloudy - 11.6 1004.7 0.0
13/09:30am WNW 22 27 - - - - 10 Partly cloudy - 11.8 1004.9 0.0
13/09:00am WNW 18 23 - - - - 10 Cloudy - 10.7 1005.4 0.0
13/08:30am WNW 17 21 - - - - 10 Partly cloudy - 10.7 1005.7 0.0
13/08:00am WNW 17 23 - - - - 10 Partly cloudy - 10.7 1005.7 0.0
13/07:30am WNW 17 20 - - - - 10 Partly cloudy - 10.2 1005.6 0.0
13/07:00am WNW 19 25 - - - - 10 Partly cloudy - 9.5 1005.8 0.0
13/06:30am WNW 18 23 - - - - 10 Cloudy - 9.1 1005.9 0.0
13/06:00am WNW 17 20 - - - - 10 Partly cloudy - 8.3 1005.6 0.0
13/05:30am WNW 17 21 - - - - 10 Partly cloudy - 8.3 1005.7 0.0
13/05:00am WNW 13 17 - - - - 10 Partly cloudy - 8.5 1005.6 0.0
13/04:30am W 14 19 - - - - 10 - - 7.4 1005.7 0.0
13/04:00am W 15 20 - - - - 10 - - 7.2 1005.9 0.0
13/03:30am W 11 14 - - - - 10 Partly cloudy - 6.8 1005.9 0.0
13/03:00am WNW 16 19 - - - - 10 Mostly cloudy Rain 8.5 1005.8 0.0
13/02:30am WNW 17 20 - - - - 10 Partly cloudy - 7.9 1005.8 0.0
13/02:00am W 15 20 - - - - 10 Partly cloudy - 7.1 1006.3 0.0

Other formats

Comma delimited format used in spreadsheet applications
http://www.bom.gov.au/fwo/IDT60701/IDT60701.95960.axf

JavaScript Object Notation format (JSON) in row-major order
http://www.bom.gov.au/fwo/IDT60701/IDT60701.95960.json

Data quality

Most of these data are generated automatically and are frequently updated. Quality checks on data are not normally performed. It is possible for incorrect values to appear. Refer to information at About Latest Weather Observations and please check the disclaimer before using these data.